Ana Sayfa
METAR-TAF:

METAR-TAF

Havaalanları :

Plainview, Teksas, Amerika Birleşik Devletleri

Enlem: 34-10-05N, Boylam: 101-43-02W, yükseklik: 1028 m

Güncel hava durumu gözlemi

Rapor saat 15:55 UTC de 27 dakika önce yapıldı.
Rüzgar güney/güneybatıdan 11 kt ve 21 kt'a kadar ani rüzgarlar
Sıcaklık 29°C
Nem 48%
Basınç 1015 hPa
Görüş mesafesi: 16.1 km
Açık gökyüzü

METAR: KPVW 191555Z AUTO 20011G21KT 10SM CLR 29/17 A2997 RMK AO2 T02900167

Saat: 11:22 (16:22 UTC)

Tahmin

Rapor saat 11:20 UTC de 5 saat ve 2 dakika önce yapıldı.
Ayın 19'si saat 12 UTC'den ayın 20'si saat 12 UTC'ye kadar geçerli Tahmin
Rüzgar güney/güneybatıdan 15 kt
Görüş mesafesi: 10 km
Açık gökyüzü

TAF: KPVW 191120Z 1912/2012 20015KT P6SM SKC

4.000'den fazla havaalanı için hava durumu gözlemleri ve tahminleri (METAR ve TAF raporları).

Kullanılabilir istasyonlar harita üzerinde sarı ve kırmızı noktalarla gösterilir.

İstasyonun adını görmek için fareyi noktanın üzerinde gezdirin.

Sonrasında hava gözlem ve tahminlerini görmek için tıklayın.

Haritayı değiştirmek için: yaklaştırmak için siyah artı işaretli yeşil düğmeye ve uzaklaştırmak için de eksi işaretli düğmeye hızla tıklayın; bitişik haritalar için yeşil okları kullanın.


METAR-TAF: